SCVD/ZAL METAR and TAF weather

Enter ICAO airport designator
Station Type Date Time Source
SCVD METAR 2022/05/23 15:00 UTC NOAA

SCVD 231500Z 04006KT 350V080 9999 SCT015 BKN030 OVC120 08/07 Q1018


Station Type Date Time Source
SCVD Decoded METAR 2022/05/23 15:00 UTC NOAA

Valdivia, Chile (SCVD) 39-37S 073-05W
May 23, 2022 - 11:00 AM EDT / 2022.05.23 1500 UTC
Wind: from the NE (040 degrees) at 7 MPH (6 KT) (direction variable):0
Visibility: greater than 7 mile(s):0
Sky conditions: overcast
Temperature: 46 F (8 C)
Dew Point: 44 F (7 C)
Relative Humidity: 93%
Pressure (altimeter): 30.06 in. Hg (1018 hPa)
ob: SCVD 231500Z 04006KT 350V080 9999 SCT015 BKN030 OVC120 08/07 Q1018
cycle: 15

Station Type Date Time Source
SCVD TAF 2022/05/23 12:00 UTC NOAA

TAF SCVD 231022Z 2312/2324 36004KT 9999 BKN050 TN06/2312Z TX10/2319Z
BECMG 2314/2316 33010KT -SHRA SCT020 OVC040

Example: see airport list